createdAt,value
2023-11-24T00:01:10.444Z,2.22
2023-11-24T00:03:37.349Z,2.20
2023-11-24T00:06:04.021Z,2.23
2023-11-24T00:08:30.614Z,2.29
2023-11-24T00:10:57.149Z,2.33
2023-11-24T00:13:23.695Z,2.31
2023-11-24T00:15:52.786Z,2.25
2023-11-24T00:18:22.474Z,2.23
2023-11-24T00:20:49.210Z,2.23
2023-11-24T00:23:17.100Z,2.26
2023-11-24T00:25:43.719Z,2.32
2023-11-24T00:28:10.264Z,2.38
2023-11-24T00:30:36.820Z,2.46
2023-11-24T00:33:03.756Z,2.52
2023-11-24T00:35:32.385Z,2.57
2023-11-24T00:37:58.997Z,2.62
2023-11-24T00:40:25.569Z,2.64
2023-11-24T00:42:52.131Z,2.60
2023-11-24T00:45:19.546Z,2.61
2023-11-24T00:47:46.338Z,2.63
2023-11-24T00:50:12.933Z,2.66
2023-11-24T00:52:39.602Z,2.71
2023-11-24T00:55:06.814Z,2.72
2023-11-24T00:57:34.081Z,2.40
2023-11-24T01:00:01.529Z,2.24
2023-11-24T01:02:28.241Z,2.25
2023-11-24T01:04:54.879Z,2.28
2023-11-24T01:07:21.571Z,2.34
2023-11-24T01:09:48.180Z,2.40
2023-11-24T01:12:15.361Z,2.50
2023-11-24T01:14:41.947Z,2.54
2023-11-24T01:17:08.638Z,2.62
2023-11-24T01:19:35.193Z,2.70
2023-11-24T01:22:01.790Z,2.76
2023-11-24T01:24:28.449Z,2.80
2023-11-24T01:26:55.641Z,2.88
2023-11-24T01:29:22.463Z,2.89
2023-11-24T01:31:49.032Z,2.70
2023-11-24T01:34:15.986Z,2.73
2023-11-24T01:36:43.814Z,2.74
2023-11-24T01:39:13.772Z,2.78
2023-11-24T01:41:41.606Z,2.82
2023-11-24T01:44:09.606Z,2.69
2023-11-24T01:46:36.300Z,2.66
2023-11-24T01:49:04.584Z,2.68
2023-11-24T01:51:31.875Z,2.69
2023-11-24T01:53:59.193Z,2.66
2023-11-24T01:56:26.991Z,2.62
2023-11-24T01:58:53.882Z,2.57
2023-11-24T02:01:25.977Z,2.61
2023-11-24T02:03:52.953Z,2.64
2023-11-24T02:06:20.040Z,2.66
2023-11-24T02:08:47.716Z,2.68
2023-11-24T02:11:14.547Z,2.71
2023-11-24T02:13:40.979Z,2.71
2023-11-24T02:16:08.369Z,2.72
2023-11-24T02:18:34.991Z,2.74
2023-11-24T02:21:03.735Z,2.78
2023-11-24T02:23:31.509Z,2.61
2023-11-24T02:25:58.410Z,2.65
2023-11-24T02:28:25.358Z,2.68
2023-11-24T02:30:52.012Z,2.57
2023-11-24T02:33:20.127Z,2.60
2023-11-24T02:35:47.524Z,2.52
2023-11-24T02:38:14.107Z,2.57
2023-11-24T02:40:44.143Z,2.64
2023-11-24T02:43:10.969Z,2.65
2023-11-24T02:45:37.580Z,2.73
2023-11-24T02:48:04.427Z,2.81
2023-11-24T02:50:31.053Z,2.91
2023-11-24T02:52:57.633Z,2.98
2023-11-24T02:55:24.213Z,3.07
2023-11-24T02:57:50.899Z,3.13
2023-11-24T03:00:19.264Z,3.19
2023-11-24T03:02:47.705Z,3.27
2023-11-24T03:05:15.156Z,3.13
2023-11-24T03:07:41.730Z,3.14
2023-11-24T03:10:09.808Z,3.14
2023-11-24T03:12:36.514Z,3.19
2023-11-24T03:15:03.213Z,3.26
2023-11-24T03:17:29.829Z,3.26
2023-11-24T03:19:56.427Z,3.16
2023-11-24T03:22:23.175Z,2.94
2023-11-24T03:24:49.792Z,2.32
2023-11-24T03:27:16.494Z,2.52
2023-11-24T03:29:43.058Z,2.66
2023-11-24T03:32:09.945Z,2.82
2023-11-24T03:34:37.324Z,2.94
2023-11-24T03:37:04.068Z,3.05
2023-11-24T03:39:31.405Z,3.17
2023-11-24T03:41:57.933Z,3.31
2023-11-24T03:44:25.022Z,3.45
2023-11-24T03:46:51.618Z,3.55
2023-11-24T03:49:18.245Z,3.64
2023-11-24T03:51:44.862Z,3.75
2023-11-24T03:54:11.472Z,3.81
2023-11-24T03:56:39.059Z,3.85
2023-11-24T03:59:05.649Z,3.80
2023-11-24T04:01:32.481Z,3.74
2023-11-24T04:04:00.258Z,3.73
2023-11-24T04:06:27.028Z,3.63
2023-11-24T04:08:53.657Z,3.66
2023-11-24T04:11:20.225Z,3.67
2023-11-24T04:13:46.787Z,3.72
2023-11-24T04:16:15.711Z,3.79
2023-11-24T04:18:42.467Z,3.82
2023-11-24T04:21:09.070Z,3.88
2023-11-24T04:23:35.748Z,3.89
2023-11-24T04:26:02.282Z,3.98
2023-11-24T04:28:28.909Z,4.07
2023-11-24T04:30:55.482Z,4.16
2023-11-24T04:33:22.266Z,4.15
2023-11-24T04:35:50.100Z,4.17
2023-11-24T04:38:16.722Z,4.20
2023-11-24T04:40:44.088Z,4.22
2023-11-24T04:43:10.700Z,4.20
2023-11-24T04:45:37.453Z,4.25
2023-11-24T04:48:04.321Z,4.31
2023-11-24T04:50:30.941Z,4.36
2023-11-24T04:52:57.579Z,4.40
2023-11-24T04:55:24.131Z,4.42
2023-11-24T04:57:51.302Z,4.41
2023-11-24T05:00:19.403Z,4.45
2023-11-24T05:02:46.938Z,4.50
2023-11-24T05:05:13.608Z,4.46
2023-11-24T05:07:40.361Z,4.49
2023-11-24T05:10:07.520Z,4.36
2023-11-24T05:12:36.008Z,4.32
2023-11-24T05:15:09.436Z,4.27
2023-11-24T05:17:36.700Z,4.16
2023-11-24T05:20:04.354Z,4.01
2023-11-24T05:22:31.012Z,3.99
2023-11-24T05:24:58.525Z,4.03
2023-11-24T05:27:25.266Z,4.13
2023-11-24T05:29:51.794Z,4.15
2023-11-24T05:32:18.561Z,4.20
2023-11-24T05:34:45.167Z,4.25
2023-11-24T05:37:12.204Z,4.34
2023-11-24T05:39:39.036Z,4.42
2023-11-24T05:42:06.222Z,4.54
2023-11-24T05:44:32.823Z,4.61
2023-11-24T05:46:59.774Z,4.64
2023-11-24T05:49:26.432Z,4.28
2023-11-24T05:51:55.900Z,3.81
2023-11-24T05:54:22.421Z,3.53
2023-11-24T05:56:48.985Z,3.05
2023-11-24T05:59:15.574Z,2.73
2023-11-24T06:01:43.563Z,2.80
2023-11-24T06:04:10.798Z,2.66
2023-11-24T06:06:37.597Z,2.68
2023-11-24T06:09:04.470Z,2.69
2023-11-24T06:11:31.013Z,2.65
2023-11-24T06:13:57.598Z,2.47
2023-11-24T06:16:24.203Z,2.25
2023-11-24T06:18:50.740Z,2.29
2023-11-24T06:21:17.783Z,2.45
2023-11-24T06:23:51.487Z,2.61
2023-11-24T06:26:19.000Z,2.78
2023-11-24T06:28:45.823Z,2.94
2023-11-24T06:31:15.727Z,3.12
2023-11-24T06:33:42.830Z,3.31
2023-11-24T06:36:09.973Z,3.49
2023-11-24T06:38:36.566Z,3.65
2023-11-24T06:41:03.531Z,3.76
2023-11-24T06:43:30.064Z,3.88
2023-11-24T06:45:56.694Z,3.97
2023-11-24T06:48:24.388Z,3.99
2023-11-24T06:50:51.023Z,4.10
2023-11-24T06:53:17.642Z,4.21
2023-11-24T06:55:44.998Z,4.33
2023-11-24T06:58:11.595Z,4.42
2023-11-24T07:00:38.245Z,4.52
2023-11-24T07:03:05.822Z,4.48
2023-11-24T07:05:32.335Z,4.50
2023-11-24T07:07:59.211Z,4.55
2023-11-24T07:10:27.690Z,4.62
2023-11-24T07:12:54.569Z,4.66
2023-11-24T07:15:21.214Z,4.71
2023-11-24T07:17:48.043Z,4.63
2023-11-24T07:20:14.781Z,4.68
2023-11-24T07:22:43.002Z,4.70
2023-11-24T07:25:11.790Z,4.74
2023-11-24T07:27:38.420Z,4.90
2023-11-24T07:30:05.811Z,5.07
2023-11-24T07:32:32.447Z,5.33
2023-11-24T07:34:59.106Z,5.60
2023-11-24T07:37:27.909Z,5.88
2023-11-24T07:39:54.979Z,6.19
2023-11-24T07:42:23.612Z,6.43
2023-11-24T07:44:50.151Z,6.62
2023-11-24T07:47:19.850Z,6.78
2023-11-24T07:49:47.244Z,6.88
2023-11-24T07:52:13.823Z,7.04
2023-11-24T07:54:43.363Z,7.11
2023-11-24T07:57:10.199Z,7.22
2023-11-24T07:59:36.822Z,7.35
2023-11-24T08:02:04.081Z,7.43
2023-11-24T08:04:30.923Z,7.50
2023-11-24T08:06:57.676Z,7.61
2023-11-24T08:09:26.822Z,7.66
2023-11-24T08:11:53.492Z,7.68
2023-11-24T08:14:24.795Z,7.78
2023-11-24T08:16:54.697Z,7.73
2023-11-24T08:19:26.767Z,7.80
2023-11-24T08:21:53.329Z,7.84
2023-11-24T08:24:19.933Z,7.86
2023-11-24T08:26:46.607Z,7.88
2023-11-24T08:29:13.535Z,7.88
2023-11-24T08:31:45.654Z,7.90
2023-11-24T08:34:12.668Z,7.95
2023-11-24T08:36:41.634Z,7.98
2023-11-24T08:39:14.470Z,7.99
2023-11-24T08:41:45.574Z,7.91
2023-11-24T08:44:13.387Z,8.00
2023-11-24T08:46:40.532Z,8.07
2023-11-24T08:49:07.309Z,8.12
2023-11-24T08:51:34.039Z,8.17
2023-11-24T08:54:00.651Z,8.17
2023-11-24T08:56:29.459Z,8.24
2023-11-24T08:58:56.054Z,8.23
2023-11-24T09:01:23.198Z,8.18
2023-11-24T09:03:50.915Z,8.12
2023-11-24T09:06:17.486Z,8.08
2023-11-24T09:08:44.061Z,8.08
2023-11-24T09:11:12.537Z,8.09
2023-11-24T09:13:39.139Z,8.10
2023-11-24T09:16:06.784Z,8.13
2023-11-24T09:18:33.417Z,8.16
2023-11-24T09:21:01.019Z,8.24
2023-11-24T09:23:27.843Z,8.30
2023-11-24T09:25:54.392Z,8.32
2023-11-24T09:28:21.835Z,8.42
2023-11-24T09:30:48.692Z,8.43
2023-11-24T09:33:15.559Z,8.48
2023-11-24T09:35:42.116Z,8.53
2023-11-24T09:38:09.006Z,8.53
2023-11-24T09:40:38.956Z,8.53
2023-11-24T09:43:05.811Z,8.51
2023-11-24T09:45:32.708Z,8.50
2023-11-24T09:48:00.270Z,8.47
2023-11-24T09:50:28.364Z,8.48
2023-11-24T09:52:57.161Z,8.55
2023-11-24T09:55:28.513Z,8.68
2023-11-24T09:57:57.246Z,8.74
2023-11-24T10:00:26.943Z,8.83
2023-11-24T10:03:04.097Z,8.90
2023-11-24T10:05:31.099Z,8.87
2023-11-24T10:07:58.372Z,8.86
2023-11-24T10:10:29.946Z,8.80
2023-11-24T10:13:01.018Z,8.69
2023-11-24T10:15:28.000Z,8.58
2023-11-24T10:17:56.008Z,8.54
2023-11-24T10:20:24.107Z,8.49
2023-11-24T10:22:51.441Z,8.40
2023-11-24T10:25:25.042Z,8.30
2023-11-24T10:28:00.661Z,8.29
2023-11-24T10:30:27.766Z,8.26
2023-11-24T10:32:54.444Z,8.16
2023-11-24T10:35:21.111Z,8.16
2023-11-24T10:37:48.498Z,8.16
2023-11-24T10:40:16.848Z,8.16
2023-11-24T10:42:49.740Z,8.12
2023-11-24T10:45:20.962Z,8.09
2023-11-24T10:48:04.415Z,8.04
2023-11-24T10:50:37.366Z,8.06
2023-11-24T10:53:23.593Z,8.05
2023-11-24T10:55:54.122Z,8.09
2023-11-24T10:58:22.521Z,8.06
2023-11-24T11:00:49.432Z,8.07
2023-11-24T11:03:17.754Z,8.05
2023-11-24T11:05:55.539Z,8.09
2023-11-24T11:08:38.043Z,8.08
2023-11-24T11:11:07.615Z,8.08
2023-11-24T11:13:37.660Z,8.10
2023-11-24T11:16:07.369Z,8.10
2023-11-24T11:18:34.592Z,8.06
2023-11-24T11:21:12.243Z,8.03
2023-11-24T11:23:39.852Z,8.01
2023-11-24T11:26:08.855Z,8.01
2023-11-24T11:28:37.909Z,7.92
2023-11-24T11:31:24.624Z,7.88
2023-11-24T11:33:51.484Z,7.86
2023-11-24T11:36:20.968Z,7.82
2023-11-24T11:38:54.692Z,7.78
2023-11-24T11:41:37.231Z,7.78
2023-11-24T11:44:21.429Z,7.77
2023-11-24T11:47:14.249Z,7.68
2023-11-24T11:49:42.032Z,7.63
2023-11-24T11:52:12.695Z,7.58
2023-11-24T11:54:40.847Z,7.57
2023-11-24T11:57:08.478Z,7.54
2023-11-24T11:59:35.635Z,7.50
2023-11-24T12:02:02.652Z,7.48
2023-11-24T12:04:29.705Z,7.47
2023-11-24T12:06:57.016Z,7.47
2023-11-24T12:09:24.416Z,7.47
2023-11-24T12:11:50.925Z,7.45
2023-11-24T12:14:17.543Z,7.47
2023-11-24T12:16:44.552Z,7.46
2023-11-24T12:19:11.778Z,7.51
2023-11-24T12:21:47.490Z,7.58
2023-11-24T12:24:17.030Z,7.56
2023-11-24T12:26:46.054Z,7.56
2023-11-24T12:29:14.685Z,7.55
2023-11-24T12:31:42.539Z,7.54
2023-11-24T12:34:28.957Z,7.57
2023-11-24T12:36:56.257Z,7.55
2023-11-24T12:39:32.058Z,7.56
2023-11-24T12:41:59.730Z,7.57
2023-11-24T12:44:27.996Z,7.60
2023-11-24T12:47:17.998Z,7.61
2023-11-24T12:50:02.336Z,7.57
2023-11-24T12:52:33.718Z,7.52
2023-11-24T12:55:02.795Z,7.54
2023-11-24T12:57:29.756Z,7.53
2023-11-24T12:59:57.998Z,7.48
2023-11-24T13:02:25.518Z,7.45
2023-11-24T13:04:52.226Z,7.43
2023-11-24T13:07:19.238Z,7.40
2023-11-24T13:09:46.161Z,7.44
2023-11-24T13:12:18.433Z,7.39
2023-11-24T13:14:47.225Z,7.34
2023-11-24T13:17:14.032Z,7.33
2023-11-24T13:19:40.827Z,7.32
2023-11-24T13:22:10.904Z,7.35
2023-11-24T13:24:38.282Z,7.32
2023-11-24T13:27:06.035Z,7.32
2023-11-24T13:29:33.104Z,7.32
2023-11-24T13:31:59.841Z,7.34
2023-11-24T13:34:26.575Z,7.37
2023-11-24T13:36:53.367Z,7.42
2023-11-24T13:39:25.970Z,7.40
2023-11-24T13:41:56.536Z,7.44
2023-11-24T13:44:24.178Z,7.46
2023-11-24T13:46:53.898Z,7.52
2023-11-24T13:49:21.046Z,7.55
2023-11-24T13:51:47.759Z,7.59
2023-11-24T13:54:15.366Z,7.56
2023-11-24T13:56:43.295Z,7.60
2023-11-24T13:59:12.912Z,7.54
2023-11-24T14:01:41.425Z,7.60
2023-11-24T14:04:12.348Z,7.62
2023-11-24T14:06:40.745Z,7.64
2023-11-24T14:09:18.433Z,7.68
2023-11-24T14:11:49.104Z,7.64
2023-11-24T14:14:16.448Z,7.61
2023-11-24T14:16:44.288Z,7.61
2023-11-24T14:19:11.830Z,7.58
2023-11-24T14:21:38.877Z,7.59
2023-11-24T14:24:11.784Z,7.62
2023-11-24T14:26:39.512Z,7.60
2023-11-24T14:29:06.689Z,7.62
2023-11-24T14:31:34.241Z,7.59
2023-11-24T14:34:01.899Z,7.55
2023-11-24T14:36:29.033Z,7.59
2023-11-24T14:38:56.836Z,7.60
2023-11-24T14:41:23.681Z,7.62
2023-11-24T14:43:50.845Z,7.68
2023-11-24T14:46:20.150Z,7.68
2023-11-24T14:48:53.882Z,7.72
2023-11-24T14:51:22.095Z,7.78
2023-11-24T14:53:50.937Z,7.78
2023-11-24T14:56:17.804Z,7.81
2023-11-24T14:58:44.694Z,7.84
2023-11-24T15:01:11.644Z,7.87
2023-11-24T15:03:40.135Z,7.87
2023-11-24T15:06:08.162Z,7.87
2023-11-24T15:08:47.617Z,7.83
2023-11-24T15:11:16.710Z,7.89
2023-11-24T15:13:44.142Z,7.86
2023-11-24T15:16:20.335Z,7.89
2023-11-24T15:18:50.320Z,7.87
2023-11-24T15:21:34.959Z,7.89
2023-11-24T15:24:03.610Z,7.85
2023-11-24T15:26:31.197Z,7.80
2023-11-24T15:28:57.779Z,7.78
2023-11-24T15:31:28.480Z,7.75
2023-11-24T15:33:55.402Z,7.75
2023-11-24T15:36:28.271Z,7.78
2023-11-24T15:38:59.915Z,7.79
2023-11-24T15:41:37.174Z,7.70
2023-11-24T15:44:07.734Z,7.62
2023-11-24T15:46:39.724Z,7.51
2023-11-24T15:49:16.115Z,7.52
2023-11-24T15:51:46.202Z,7.54
2023-11-24T15:54:14.085Z,7.56
2023-11-24T15:56:40.915Z,7.59
2023-11-24T15:59:16.582Z,7.62
2023-11-24T16:01:43.699Z,7.65
2023-11-24T16:04:11.995Z,7.65
2023-11-24T16:06:46.109Z,7.66
2023-11-24T16:09:22.621Z,7.56
2023-11-24T16:12:13.567Z,7.55
2023-11-24T16:14:40.367Z,7.56
2023-11-24T16:17:08.930Z,7.55
2023-11-24T16:19:36.222Z,7.47
2023-11-24T16:22:03.138Z,7.49
2023-11-24T16:24:29.802Z,7.35
2023-11-24T16:26:56.626Z,7.39
2023-11-24T16:29:23.788Z,7.39
2023-11-24T16:31:52.569Z,7.44
2023-11-24T16:34:21.613Z,7.47
2023-11-24T16:36:48.523Z,7.53
2023-11-24T16:39:23.799Z,7.51
2023-11-24T16:41:51.169Z,7.47
2023-11-24T16:44:18.057Z,7.48
2023-11-24T16:46:56.567Z,7.39
2023-11-24T16:49:23.589Z,7.39
2023-11-24T16:51:50.319Z,7.40
2023-11-24T16:54:17.164Z,7.40
2023-11-24T16:56:44.863Z,7.42
2023-11-24T16:59:11.466Z,7.29
2023-11-24T17:01:38.211Z,7.27
2023-11-24T17:04:06.251Z,7.27
2023-11-24T17:06:33.869Z,7.27
2023-11-24T17:09:00.385Z,7.22
2023-11-24T17:11:26.961Z,7.08
2023-11-24T17:13:53.553Z,6.92
2023-11-24T17:16:21.874Z,6.82
2023-11-24T17:18:48.755Z,6.78
2023-11-24T17:21:15.451Z,6.75
2023-11-24T17:23:42.871Z,6.73
2023-11-24T17:26:13.056Z,6.62
2023-11-24T17:28:40.732Z,6.46
2023-11-24T17:31:09.623Z,6.40
2023-11-24T17:33:37.121Z,6.37
2023-11-24T17:36:06.691Z,6.35
2023-11-24T17:38:33.347Z,6.35
2023-11-24T17:41:02.087Z,6.25
2023-11-24T17:43:28.793Z,6.26
2023-11-24T17:45:56.128Z,6.29
2023-11-24T17:48:23.443Z,6.10
2023-11-24T17:50:50.112Z,6.12
2023-11-24T17:53:16.850Z,6.14
2023-11-24T17:55:43.806Z,6.19
2023-11-24T17:58:11.338Z,6.19
2023-11-24T18:03:08.854Z,6.05
2023-11-24T18:05:36.761Z,5.99
2023-11-24T18:08:04.180Z,5.98
2023-11-24T18:10:31.311Z,5.95
2023-11-24T18:12:58.816Z,5.94
2023-11-24T18:15:28.199Z,5.96
2023-11-24T18:17:54.890Z,5.99
2023-11-24T18:20:22.831Z,6.00
2023-11-24T18:22:49.648Z,5.95
2023-11-24T18:25:16.413Z,5.89
2023-11-24T18:27:44.295Z,5.80
2023-11-24T18:30:11.636Z,5.70
2023-11-24T18:32:39.142Z,5.69
2023-11-24T18:35:06.002Z,5.67
2023-11-24T18:37:32.751Z,5.68
2023-11-24T18:40:01.800Z,5.71
2023-11-24T18:42:30.565Z,5.76
2023-11-24T18:44:57.188Z,5.77
2023-11-24T18:47:27.336Z,5.84
2023-11-24T18:49:54.655Z,5.87
2023-11-24T18:52:21.975Z,5.89
2023-11-24T18:54:49.471Z,5.86
2023-11-24T18:57:16.305Z,5.80
2023-11-24T18:59:43.032Z,5.89
2023-11-24T19:02:10.425Z,5.94
2023-11-24T19:04:37.461Z,6.01
2023-11-24T19:07:04.427Z,6.12
2023-11-24T19:09:31.059Z,6.21
2023-11-24T19:11:57.863Z,6.30
2023-11-24T19:14:24.409Z,6.36
2023-11-24T19:16:51.765Z,6.45
2023-11-24T19:19:18.472Z,6.52
2023-11-24T19:21:45.440Z,6.51
2023-11-24T19:24:12.062Z,6.52
2023-11-24T19:26:38.678Z,6.56
2023-11-24T19:29:10.967Z,6.56
2023-11-24T19:31:39.793Z,6.57
2023-11-24T19:34:08.797Z,6.53
2023-11-24T19:36:35.838Z,6.08
2023-11-24T19:39:02.539Z,5.99
2023-11-24T19:41:29.982Z,5.83
2023-11-24T19:43:56.626Z,5.72
2023-11-24T19:46:24.720Z,5.56
2023-11-24T19:48:54.611Z,5.44
2023-11-24T19:51:21.510Z,5.36
2023-11-24T19:53:50.584Z,5.31
2023-11-24T19:56:19.222Z,5.29
2023-11-24T19:58:45.912Z,5.28
2023-11-24T20:01:12.684Z,5.26
2023-11-24T20:03:40.142Z,5.27
2023-11-24T20:06:07.626Z,5.25
2023-11-24T20:08:34.927Z,5.22
2023-11-24T20:11:01.746Z,5.21
2023-11-24T20:13:29.572Z,5.24
2023-11-24T20:15:57.817Z,5.25
2023-11-24T20:18:24.724Z,5.30
2023-11-24T20:20:52.745Z,5.34
2023-11-24T20:23:19.767Z,5.42
2023-11-24T20:25:46.750Z,5.45
2023-11-24T20:28:14.240Z,5.50
2023-11-24T20:30:41.048Z,5.58
2023-11-24T20:33:07.793Z,5.56
2023-11-24T20:35:34.614Z,5.65
2023-11-24T20:38:02.793Z,5.66
2023-11-24T20:40:29.525Z,5.73
2023-11-24T20:42:56.260Z,5.80
2023-11-24T20:45:22.980Z,5.80
2023-11-24T20:47:50.362Z,5.85
2023-11-24T20:50:19.434Z,5.91
2023-11-24T20:52:46.664Z,5.96
2023-11-24T20:55:18.281Z,5.95
2023-11-24T20:57:45.251Z,5.88
2023-11-24T21:00:12.882Z,5.80
2023-11-24T21:02:40.597Z,5.73
2023-11-24T21:05:09.191Z,5.80
2023-11-24T21:07:37.298Z,5.80
2023-11-24T21:10:05.434Z,5.77
2023-11-24T21:12:32.736Z,5.72
2023-11-24T21:15:00.564Z,5.64
2023-11-24T21:17:27.912Z,5.59
2023-11-24T21:19:54.772Z,5.52
2023-11-24T21:22:21.688Z,5.49
2023-11-24T21:24:51.366Z,5.50
2023-11-24T21:27:19.059Z,5.54
2023-11-24T21:29:45.748Z,5.60
2023-11-24T21:32:12.381Z,5.65
2023-11-24T21:34:38.964Z,5.67
2023-11-24T21:37:09.124Z,5.71
2023-11-24T21:39:38.665Z,5.71
2023-11-24T21:42:05.503Z,5.62
2023-11-24T21:44:32.176Z,5.55
2023-11-24T21:46:58.863Z,5.47
2023-11-24T21:49:25.534Z,5.43
2023-11-24T21:51:52.200Z,5.24
2023-11-24T21:54:18.745Z,5.11
2023-11-24T21:56:45.360Z,5.03
2023-11-24T21:59:12.433Z,4.89
2023-11-24T22:01:39.262Z,4.77
2023-11-24T22:04:06.526Z,4.68
2023-11-24T22:06:36.670Z,4.63
2023-11-24T22:09:05.576Z,4.57
2023-11-24T22:11:35.534Z,4.50
2023-11-24T22:14:02.148Z,4.47
2023-11-24T22:16:28.861Z,4.46
2023-11-24T22:18:55.581Z,4.48
2023-11-24T22:21:22.511Z,4.45
2023-11-24T22:23:49.605Z,4.45
2023-11-24T22:26:22.117Z,4.40
2023-11-24T22:28:50.772Z,4.38
2023-11-24T22:31:17.702Z,4.37
2023-11-24T22:33:44.621Z,4.37
2023-11-24T22:36:19.571Z,4.33
2023-11-24T22:38:47.498Z,4.32
2023-11-24T22:41:18.048Z,4.33
2023-11-24T22:43:45.151Z,4.30
2023-11-24T22:46:12.101Z,4.29
2023-11-24T22:48:39.152Z,4.30
2023-11-24T22:51:05.965Z,4.28
2023-11-24T22:53:32.874Z,4.29
2023-11-24T22:55:59.575Z,4.26
2023-11-24T22:58:26.176Z,4.26
2023-11-24T23:00:54.443Z,4.27
2023-11-24T23:03:21.154Z,4.30
2023-11-24T23:05:48.252Z,4.31
2023-11-24T23:08:15.190Z,4.32
2023-11-24T23:10:41.800Z,4.30
2023-11-24T23:13:08.623Z,4.28
2023-11-24T23:15:35.590Z,4.28
2023-11-24T23:18:02.330Z,4.27
2023-11-24T23:20:29.373Z,4.19
2023-11-24T23:22:55.982Z,4.16
2023-11-24T23:25:22.604Z,4.10
2023-11-24T23:27:49.215Z,4.05
2023-11-24T23:30:16.440Z,4.03
2023-11-24T23:32:45.891Z,3.99
2023-11-24T23:35:13.037Z,3.97
2023-11-24T23:37:44.000Z,3.93
2023-11-24T23:40:15.104Z,3.92
2023-11-24T23:42:46.376Z,3.92
2023-11-24T23:45:13.378Z,3.91
2023-11-24T23:47:40.022Z,3.94
2023-11-24T23:50:09.559Z,4.00
2023-11-24T23:52:36.729Z,4.06
2023-11-24T23:55:05.145Z,4.10
2023-11-24T23:57:31.979Z,4.15
2023-11-24T23:59:58.571Z,4.16
